createdAt,value
2024-02-13T00:00:01.279Z,0.00
2024-02-13T00:10:01.117Z,0.00
2024-02-13T00:20:01.356Z,0.00
2024-02-13T00:30:02.992Z,0.00
2024-02-13T00:40:01.267Z,0.00
2024-02-13T00:50:01.125Z,0.00
2024-02-13T01:00:01.155Z,0.00
2024-02-13T01:10:01.080Z,0.00
2024-02-13T01:20:01.325Z,0.00
2024-02-13T01:30:02.817Z,0.00
2024-02-13T01:50:01.274Z,0.00
2024-02-13T02:00:02.039Z,0.00
2024-02-13T02:10:01.100Z,0.00
2024-02-13T02:20:01.106Z,0.00
2024-02-13T02:30:01.052Z,0.00
2024-02-13T02:40:01.029Z,0.00
2024-02-13T02:50:01.332Z,0.00
2024-02-13T03:00:01.028Z,0.00
2024-02-13T03:10:01.061Z,0.00
2024-02-13T03:20:02.047Z,0.00
2024-02-13T03:30:02.805Z,0.00
2024-02-13T03:40:01.886Z,0.00
2024-02-13T03:50:01.092Z,0.00
2024-02-13T04:00:01.275Z,0.00
2024-02-13T04:10:01.507Z,0.00
2024-02-13T04:20:01.085Z,0.00
2024-02-13T04:30:01.615Z,0.00
2024-02-13T04:40:01.251Z,0.00
2024-02-13T04:50:01.384Z,0.00
2024-02-13T05:00:01.961Z,0.00
2024-02-13T05:20:01.457Z,0.00
2024-02-13T05:30:01.341Z,0.00
2024-02-13T05:40:01.454Z,0.00
2024-02-13T05:50:01.157Z,0.00
2024-02-13T06:00:01.579Z,0.83
2024-02-13T06:10:01.100Z,5.83
2024-02-13T06:20:01.090Z,19.17
2024-02-13T06:30:01.342Z,62.50
2024-02-13T06:40:01.052Z,162.50
2024-02-13T06:50:01.518Z,264.17
2024-02-13T07:00:04.208Z,376.67
2024-02-13T07:10:02.135Z,615.83
2024-02-13T07:20:01.157Z,750.00
2024-02-13T07:30:01.511Z,905.00
2024-02-13T07:50:01.089Z,1493.33
2024-02-13T08:00:02.160Z,1406.67
2024-02-13T08:10:02.345Z,1800.00
2024-02-13T08:20:01.958Z,1927.50
2024-02-13T08:30:01.698Z,2080.00
2024-02-13T08:40:00.948Z,2280.00
2024-02-13T08:50:01.617Z,2234.17
2024-02-13T09:00:01.072Z,2594.17
2024-02-13T09:10:01.868Z,2340.83
2024-02-13T09:20:01.066Z,3263.33
2024-02-13T09:30:01.172Z,3726.67
2024-02-13T09:40:01.999Z,3546.67
2024-02-13T09:50:02.397Z,3731.67
2024-02-13T10:00:02.053Z,3828.33
2024-02-13T10:10:01.299Z,4354.17
2024-02-13T10:20:01.061Z,5385.00
2024-02-13T10:30:02.034Z,5110.83
2024-02-13T10:40:01.917Z,4318.33
2024-02-13T10:50:01.569Z,3817.50
2024-02-13T11:00:01.101Z,4296.67
2024-02-13T11:10:01.356Z,6696.67
2024-02-13T11:20:01.358Z,7277.50
2024-02-13T11:30:01.922Z,7640.00
2024-02-13T11:40:00.993Z,3870.83
2024-02-13T11:50:01.201Z,16886.67
2024-02-13T12:00:01.386Z,18991.67
2024-02-13T12:10:01.136Z,7711.67
2024-02-13T12:20:02.481Z,5352.50
2024-02-13T12:30:01.560Z,4874.17
2024-02-13T12:40:01.085Z,4383.33
2024-02-13T12:50:01.101Z,16495.00
2024-02-13T13:00:01.672Z,14645.00
2024-02-13T13:10:01.104Z,15388.33
2024-02-13T13:20:01.159Z,13978.33
2024-02-13T13:30:01.147Z,9153.33
2024-02-13T13:40:01.269Z,5152.50
2024-02-13T13:50:01.029Z,3129.17
2024-02-13T14:00:01.216Z,3318.33
2024-02-13T14:10:01.921Z,3755.83
2024-02-13T14:20:01.093Z,7578.33
2024-02-13T14:30:01.402Z,8355.00
2024-02-13T14:40:01.249Z,6915.00
2024-02-13T14:50:00.730Z,8394.17
2024-02-13T15:00:03.645Z,3587.50
2024-02-13T15:10:02.118Z,4797.50
2024-02-13T15:20:01.417Z,4797.50
2024-02-13T15:30:01.103Z,4797.50
2024-02-13T15:40:01.214Z,4797.50
2024-02-13T15:50:01.308Z,4797.50
2024-02-13T16:00:01.607Z,4797.50
2024-02-13T16:10:01.257Z,4797.50
2024-02-13T16:20:02.249Z,4797.50
2024-02-13T16:40:01.058Z,4797.50
2024-02-13T16:50:02.012Z,4797.50
2024-02-13T17:00:01.489Z,4797.50
2024-02-13T17:10:01.958Z,4797.50
2024-02-13T17:20:01.611Z,4797.50
2024-02-13T17:30:00.673Z,4797.50
2024-02-13T17:40:01.749Z,4797.50
2024-02-13T17:50:01.377Z,4797.50
2024-02-13T18:00:01.500Z,4797.50
2024-02-13T18:10:02.073Z,4797.50
2024-02-13T18:20:01.534Z,4797.50
2024-02-13T18:30:01.610Z,4797.50
2024-02-13T18:40:01.360Z,4797.50
2024-02-13T18:50:01.982Z,4797.50
2024-02-13T19:00:02.578Z,4797.50
2024-02-13T19:10:01.142Z,4797.50
2024-02-13T19:20:01.946Z,4797.50
2024-02-13T19:30:01.285Z,4797.50
2024-02-13T19:40:01.965Z,4797.50
2024-02-13T19:50:01.242Z,4797.50
2024-02-13T20:00:02.041Z,4797.50
2024-02-13T20:10:01.088Z,4797.50
2024-02-13T20:20:01.222Z,4797.50
2024-02-13T20:30:01.756Z,4797.50
2024-02-13T20:40:02.000Z,4797.50
2024-02-13T20:50:01.139Z,4797.50
2024-02-13T21:00:01.821Z,4797.50
2024-02-13T21:10:01.072Z,4797.50
2024-02-13T21:20:01.571Z,0.00
2024-02-13T21:40:01.036Z,0.00
2024-02-13T21:50:01.975Z,0.00
2024-02-13T22:00:01.583Z,0.00
2024-02-13T22:10:01.908Z,0.00
2024-02-13T22:20:00.606Z,0.00
2024-02-13T22:30:01.584Z,0.00
2024-02-13T22:40:01.524Z,0.00
2024-02-13T22:50:01.640Z,0.00
2024-02-13T23:00:02.044Z,0.00
2024-02-13T23:10:01.998Z,0.00
2024-02-13T23:20:01.077Z,0.00
2024-02-13T23:30:01.564Z,0.00
2024-02-13T23:40:01.077Z,0.00
2024-02-13T23:50:01.539Z,0.00
